sensor_id;sensor_type;location;lat;lon;timestamp;pressure;altitude;pressure_sealevel;temperature;humidity
64066;BME280;50318;54.760;9.408;2022-08-24T00:00:54;101583.91;;;23.88;55.81
64066;BME280;50318;54.760;9.408;2022-08-24T00:03:20;101588.00;;;23.87;55.98
64066;BME280;50318;54.760;9.408;2022-08-24T00:05:45;101582.38;;;23.87;55.12
64066;BME280;50318;54.760;9.408;2022-08-24T00:08:12;101582.38;;;23.87;55.91
64066;BME280;50318;54.760;9.408;2022-08-24T00:10:38;101590.56;;;23.85;55.85
64066;BME280;50318;54.760;9.408;2022-08-24T00:13:05;101581.44;;;23.79;56.03
64066;BME280;50318;54.760;9.408;2022-08-24T00:15:31;101575.13;;;23.73;56.04
64066;BME280;50318;54.760;9.408;2022-08-24T00:17:57;101586.09;;;23.71;55.92
64066;BME280;50318;54.760;9.408;2022-08-24T00:20:24;101584.56;;;23.70;56.24
64066;BME280;50318;54.760;9.408;2022-08-24T00:22:51;101582.56;;;23.65;56.56
64066;BME280;50318;54.760;9.408;2022-08-24T00:25:17;101596.81;;;23.67;56.27
64066;BME280;50318;54.760;9.408;2022-08-24T00:27:45;101594.03;;;23.62;56.78
64066;BME280;50318;54.760;9.408;2022-08-24T00:30:14;101593.81;;;23.60;56.49
64066;BME280;50318;54.760;9.408;2022-08-24T00:32:41;101593.34;;;23.50;56.82
64066;BME280;50318;54.760;9.408;2022-08-24T00:35:08;101598.94;;;23.50;56.86
64066;BME280;50318;54.760;9.408;2022-08-24T00:37:35;101593.63;;;23.46;57.72
64066;BME280;50318;54.760;9.408;2022-08-24T00:40:08;101584.47;;;23.40;57.42
64066;BME280;50318;54.760;9.408;2022-08-24T00:42:37;101588.31;;;23.43;57.69
64066;BME280;50318;54.760;9.408;2022-08-24T00:45:05;101586.00;;;23.47;57.44
64066;BME280;50318;54.760;9.408;2022-08-24T00:47:43;101582.44;;;23.46;57.50
64066;BME280;50318;54.760;9.408;2022-08-24T00:50:12;101590.06;;;23.46;57.79
64066;BME280;50318;54.760;9.408;2022-08-24T00:52:50;101585.50;;;23.43;58.44
64066;BME280;50318;54.760;9.408;2022-08-24T00:55:25;101580.66;;;23.43;57.57
64066;BME280;50318;54.760;9.408;2022-08-24T00:57:56;101578.34;;;23.42;57.24
64066;BME280;50318;54.760;9.408;2022-08-24T01:00:26;101585.50;;;23.43;57.96
64066;BME280;50318;54.760;9.408;2022-08-24T01:03:31;101592.88;;;23.46;58.09
64066;BME280;50318;54.760;9.408;2022-08-24T01:06:17;101583.19;;;23.41;57.05
64066;BME280;50318;54.760;9.408;2022-08-24T01:08:43;101578.88;;;23.40;57.83
64066;BME280;50318;54.760;9.408;2022-08-24T01:11:14;101578.13;;;23.40;57.38
64066;BME280;50318;54.760;9.408;2022-08-24T01:13:44;101583.97;;;23.42;57.77
64066;BME280;50318;54.760;9.408;2022-08-24T01:16:12;101588.81;;;23.41;57.24
64066;BME280;50318;54.760;9.408;2022-08-24T01:18:39;101583.25;;;23.36;57.83
64066;BME280;50318;54.760;9.408;2022-08-24T01:21:26;101594.69;;;23.38;58.27
64066;BME280;50318;54.760;9.408;2022-08-24T01:24:00;101584.81;;;23.31;58.25
64066;BME280;50318;54.760;9.408;2022-08-24T01:26:34;101590.13;;;23.35;58.35
64066;BME280;50318;54.760;9.408;2022-08-24T01:29:03;101587.84;;;23.33;58.12
64066;BME280;50318;54.760;9.408;2022-08-24T01:31:30;101584.03;;;23.31;58.45
64066;BME280;50318;54.760;9.408;2022-08-24T01:33:56;101577.22;;;23.26;58.15
64066;BME280;50318;54.760;9.408;2022-08-24T01:38:47;101580.75;;;23.26;58.15
64066;BME280;50318;54.760;9.408;2022-08-24T01:41:13;101584.84;;;23.25;58.01
64066;BME280;50318;54.760;9.408;2022-08-24T01:43:39;101584.84;;;23.25;58.39
64066;BME280;50318;54.760;9.408;2022-08-24T01:46:06;101588.69;;;23.22;58.37
64066;BME280;50318;54.760;9.408;2022-08-24T01:48:33;101597.84;;;23.17;58.68
64066;BME280;50318;54.760;9.408;2022-08-24T01:50:59;101597.09;;;23.17;58.13
64066;BME280;50318;54.760;9.408;2022-08-24T01:53:25;101610.06;;;23.14;57.88
64066;BME280;50318;54.760;9.408;2022-08-24T01:55:51;101607.56;;;23.11;58.63
64066;BME280;50318;54.760;9.408;2022-08-24T01:58:17;101609.59;;;23.10;59.02
64066;BME280;50318;54.760;9.408;2022-08-24T02:00:43;101600.94;;;23.08;58.88
64066;BME280;50318;54.760;9.408;2022-08-24T02:03:09;101615.44;;;23.12;58.31
64066;BME280;50318;54.760;9.408;2022-08-24T02:05:35;101611.63;;;23.10;58.88
64066;BME280;50318;54.760;9.408;2022-08-24T02:08:02;101603.25;;;23.04;59.41
64066;BME280;50318;54.760;9.408;2022-08-24T02:10:28;101607.59;;;23.05;58.57
64066;BME280;50318;54.760;9.408;2022-08-24T02:12:56;101613.66;;;23.09;59.01
64066;BME280;50318;54.760;9.408;2022-08-24T02:15:28;101611.91;;;23.06;59.32
64066;BME280;50318;54.760;9.408;2022-08-24T02:17:54;101616.19;;;23.13;59.59
64066;BME280;50318;54.760;9.408;2022-08-24T02:20:21;101615.19;;;23.10;59.05
64066;BME280;50318;54.760;9.408;2022-08-24T02:22:49;101610.59;;;23.13;59.18
64066;BME280;50318;54.760;9.408;2022-08-24T02:25:16;101616.94;;;23.13;59.37
64066;BME280;50318;54.760;9.408;2022-08-24T02:27:42;101625.34;;;23.13;59.01
64066;BME280;50318;54.760;9.408;2022-08-24T02:30:09;101616.97;;;23.08;58.80
64066;BME280;50318;54.760;9.408;2022-08-24T02:32:35;101617.75;;;23.08;59.47
64066;BME280;50318;54.760;9.408;2022-08-24T02:35:01;101608.63;;;23.02;59.30
64066;BME280;50318;54.760;9.408;2022-08-24T02:37:27;101614.19;;;23.08;59.83
64066;BME280;50318;54.760;9.408;2022-08-24T02:39:53;101606.59;;;23.03;59.08
64066;BME280;50318;54.760;9.408;2022-08-24T02:42:20;101619.25;;;23.09;59.83
64066;BME280;50318;54.760;9.408;2022-08-24T02:44:46;101612.94;;;23.03;58.98
64066;BME280;50318;54.760;9.408;2022-08-24T02:47:12;101609.41;;;22.97;59.39
64066;BME280;50318;54.760;9.408;2022-08-24T02:49:38;101613.22;;;23.00;59.47
64066;BME280;50318;54.760;9.408;2022-08-24T02:52:04;101613.47;;;22.96;59.37
64066;BME280;50318;54.760;9.408;2022-08-24T02:54:32;101618.31;;;22.95;59.30
64066;BME280;50318;54.760;9.408;2022-08-24T02:56:58;101620.84;;;22.93;59.43
64066;BME280;50318;54.760;9.408;2022-08-24T02:59:24;101622.63;;;22.91;59.53
64066;BME280;50318;54.760;9.408;2022-08-24T03:01:50;101631.53;;;22.89;59.59
64066;BME280;50318;54.760;9.408;2022-08-24T03:04:17;101624.69;;;22.85;59.67
64066;BME280;50318;54.760;9.408;2022-08-24T03:06:43;101629.25;;;22.88;60.08
64066;BME280;50318;54.760;9.408;2022-08-24T03:09:09;101636.13;;;22.87;60.29
64066;BME280;50318;54.760;9.408;2022-08-24T03:11:35;101619.38;;;22.81;59.46
64066;BME280;50318;54.760;9.408;2022-08-24T03:14:01;101623.94;;;22.79;60.26
64066;BME280;50318;54.760;9.408;2022-08-24T03:16:30;101624.19;;;22.81;60.52
64066;BME280;50318;54.760;9.408;2022-08-24T03:18:56;101625.22;;;22.78;60.48
64066;BME280;50318;54.760;9.408;2022-08-24T03:21:23;101619.88;;;22.74;60.39
64066;BME280;50318;54.760;9.408;2022-08-24T03:23:49;101634.63;;;22.75;60.23
64066;BME280;50318;54.760;9.408;2022-08-24T03:26:14;101635.91;;;22.74;60.70
64066;BME280;50318;54.760;9.408;2022-08-24T03:28:40;101632.34;;;22.73;61.08
64066;BME280;50318;54.760;9.408;2022-08-24T03:31:06;101632.06;;;22.71;60.88
64066;BME280;50318;54.760;9.408;2022-08-24T03:33:32;101632.59;;;22.70;60.60
64066;BME280;50318;54.760;9.408;2022-08-24T03:35:59;101627.28;;;22.60;61.10
64066;BME280;50318;54.760;9.408;2022-08-24T03:38:25;101631.09;;;22.63;61.13
64066;BME280;50318;54.760;9.408;2022-08-24T03:40:51;101624.25;;;22.58;61.18
64066;BME280;50318;54.760;9.408;2022-08-24T03:43:17;101617.63;;;22.56;61.38
64066;BME280;50318;54.760;9.408;2022-08-24T03:46:05;101619.94;;;22.57;60.99
64066;BME280;50318;54.760;9.408;2022-08-24T03:48:32;101617.63;;;22.56;61.26
64066;BME280;50318;54.760;9.408;2022-08-24T03:50:58;101602.66;;;22.48;60.75
64066;BME280;50318;54.760;9.408;2022-08-24T03:53:24;101605.47;;;22.48;61.17
64066;BME280;50318;54.760;9.408;2022-08-24T03:55:59;101609.25;;;22.45;61.44
64066;BME280;50318;54.760;9.408;2022-08-24T03:58:25;101606.22;;;22.43;61.23
64066;BME280;50318;54.760;9.408;2022-08-24T04:00:52;101616.63;;;22.42;61.17
64066;BME280;50318;54.760;9.408;2022-08-24T04:03:21;101610.81;;;22.40;61.45
64066;BME280;50318;54.760;9.408;2022-08-24T04:05:47;101614.88;;;22.39;61.17
64066;BME280;50318;54.760;9.408;2022-08-24T04:08:13;101615.91;;;22.36;61.59
64066;BME280;50318;54.760;9.408;2022-08-24T04:10:43;101612.59;;;22.32;61.95
64066;BME280;50318;54.760;9.408;2022-08-24T04:13:08;101623.53;;;22.35;61.31
64066;BME280;50318;54.760;9.408;2022-08-24T04:15:39;101627.59;;;22.29;61.46
64066;BME280;50318;54.760;9.408;2022-08-24T04:18:04;101641.31;;;22.27;61.44
64066;BME280;50318;54.760;9.408;2022-08-24T04:20:30;101648.19;;;22.26;61.73
64066;BME280;50318;54.760;9.408;2022-08-24T04:22:56;101631.66;;;22.17;62.06
64066;BME280;50318;54.760;9.408;2022-08-24T04:25:21;101643.59;;;22.23;62.31
64066;BME280;50318;54.760;9.408;2022-08-24T04:27:49;101634.69;;;22.19;62.72
64066;BME280;50318;54.760;9.408;2022-08-24T04:30:15;101627.34;;;22.16;62.71
64066;BME280;50318;54.760;9.408;2022-08-24T04:33:12;101654.03;;;22.28;62.51
64066;BME280;50318;54.760;9.408;2022-08-24T04:35:41;101633.19;;;22.29;62.04
64066;BME280;50318;54.760;9.408;2022-08-24T04:38:08;101651.47;;;22.35;62.74
64066;BME280;50318;54.760;9.408;2022-08-24T04:40:37;101648.66;;;22.41;62.46
64066;BME280;50318;54.760;9.408;2022-08-24T04:43:03;101649.91;;;22.46;62.26
64066;BME280;50318;54.760;9.408;2022-08-24T04:45:29;101649.69;;;22.49;62.54
64066;BME280;50318;54.760;9.408;2022-08-24T04:47:55;101632.63;;;22.47;62.54
64066;BME280;50318;54.760;9.408;2022-08-24T04:50:22;101635.44;;;22.53;62.26
64066;BME280;50318;54.760;9.408;2022-08-24T04:53:02;101642.78;;;22.61;61.63
64066;BME280;50318;54.760;9.408;2022-08-24T04:55:29;101629.84;;;22.58;61.53
64066;BME280;50318;54.760;9.408;2022-08-24T04:57:55;101621.69;;;22.60;61.79
64066;BME280;50318;54.760;9.408;2022-08-24T05:00:21;101627.78;;;22.64;61.77
64066;BME280;50318;54.760;9.408;2022-08-24T05:03:04;101626.25;;;22.63;61.44
64066;BME280;50318;54.760;9.408;2022-08-24T05:05:30;101629.78;;;22.70;61.70
64066;BME280;50318;54.760;9.408;2022-08-24T05:07:57;101593.25;;;22.45;61.61
64066;BME280;50318;54.760;9.408;2022-08-24T05:10:23;101631.84;;;22.75;61.72
64066;BME280;50318;54.760;9.408;2022-08-24T05:12:49;101626.25;;;22.69;61.43
64066;BME280;50318;54.760;9.408;2022-08-24T05:15:22;101638.19;;;22.75;61.76
64066;BME280;50318;54.760;9.408;2022-08-24T05:17:48;101640.75;;;22.73;61.19
64066;BME280;50318;54.760;9.408;2022-08-24T05:20:15;101637.94;;;22.73;61.68
64066;BME280;50318;54.760;9.408;2022-08-24T05:22:41;101642.25;;;22.74;61.43
64066;BME280;50318;54.760;9.408;2022-08-24T05:25:07;101637.66;;;22.71;61.86
64066;BME280;50318;54.760;9.408;2022-08-24T05:27:34;101648.09;;;22.76;61.73
64066;BME280;50318;54.760;9.408;2022-08-24T05:30:00;101646.06;;;22.71;61.09
64066;BME280;50318;54.760;9.408;2022-08-24T05:32:27;101651.16;;;22.78;62.02
64066;BME280;50318;54.760;9.408;2022-08-24T05:34:53;101641.75;;;22.76;62.02
64066;BME280;50318;54.760;9.408;2022-08-24T05:37:19;101648.59;;;22.80;61.89
64066;BME280;50318;54.760;9.408;2022-08-24T05:40:10;101654.19;;;22.80;61.92
64066;BME280;50318;54.760;9.408;2022-08-24T05:42:39;101653.19;;;22.78;61.34
64066;BME280;50318;54.760;9.408;2022-08-24T05:45:06;101654.72;;;22.79;62.47
64066;BME280;50318;54.760;9.408;2022-08-24T05:47:34;101654.72;;;22.84;62.22
64066;BME280;50318;54.760;9.408;2022-08-24T05:50:05;101656.75;;;22.84;61.62
64066;BME280;50318;54.760;9.408;2022-08-24T05:52:49;101671.72;;;22.92;62.17
64066;BME280;50318;54.760;9.408;2022-08-24T05:55:15;101669.94;;;22.94;61.85
64066;BME280;50318;54.760;9.408;2022-08-24T05:57:41;101665.38;;;22.91;61.72
64066;BME280;50318;54.760;9.408;2022-08-24T06:00:18;101672.97;;;23.02;61.70
64066;BME280;50318;54.760;9.408;2022-08-24T06:02:47;101671.69;;;23.09;61.86
64066;BME280;50318;54.760;9.408;2022-08-24T06:05:17;101672.16;;;23.13;62.02
64066;BME280;50318;54.760;9.408;2022-08-24T06:07:44;101656.88;;;23.14;61.49
64066;BME280;50318;54.760;9.408;2022-08-24T06:10:10;101671.38;;;23.23;62.16
64066;BME280;50318;54.760;9.408;2022-08-24T06:12:36;101665.50;;;23.27;61.85
64066;BME280;50318;54.760;9.408;2022-08-24T06:15:03;101672.56;;;23.39;61.53
64066;BME280;50318;54.760;9.408;2022-08-24T06:17:29;101676.09;;;23.45;61.95
64066;BME280;50318;54.760;9.408;2022-08-24T06:19:56;101678.34;;;23.58;61.92
64066;BME280;50318;54.760;9.408;2022-08-24T06:22:23;101668.88;;;23.67;62.00
64066;BME280;50318;54.760;9.408;2022-08-24T06:24:49;101665.00;;;23.75;61.16
64066;BME280;50318;54.760;9.408;2022-08-24T06:27:33;101680.69;;;23.89;59.45
64066;BME280;50318;54.760;9.408;2022-08-24T06:30:03;101684.94;;;24.02;60.61
64066;BME280;50318;54.760;9.408;2022-08-24T06:33:07;101684.81;;;24.18;60.57
64066;BME280;50318;54.760;9.408;2022-08-24T06:35:40;101680.69;;;24.25;60.35
64066;BME280;50318;54.760;9.408;2022-08-24T06:38:06;101695.13;;;24.40;59.17
64066;BME280;50318;54.760;9.408;2022-08-24T06:40:32;101697.34;;;24.47;59.69
64066;BME280;50318;54.760;9.408;2022-08-24T06:43:01;101696.28;;;24.51;59.39
64066;BME280;50318;54.760;9.408;2022-08-24T06:45:47;101700.53;;;24.63;59.08
64066;BME280;50318;54.760;9.408;2022-08-24T06:48:15;101705.59;;;24.64;58.22
64066;BME280;50318;54.760;9.408;2022-08-24T06:50:43;101712.22;;;24.67;59.09
64066;BME280;50318;54.760;9.408;2022-08-24T06:53:08;101706.53;;;24.72;59.69
64066;BME280;50318;54.760;9.408;2022-08-24T06:55:52;101706.72;;;24.80;58.72
64066;BME280;50318;54.760;9.408;2022-08-24T06:58:19;101706.94;;;24.82;59.03
64066;BME280;50318;54.760;9.408;2022-08-24T07:00:45;101708.47;;;24.83;58.82
64066;BME280;50318;54.760;9.408;2022-08-24T07:03:13;101711.53;;;24.85;59.16
64066;BME280;50318;54.760;9.408;2022-08-24T07:05:54;101704.13;;;24.82;58.94
64066;BME280;50318;54.760;9.408;2022-08-24T07:08:35;101710.47;;;24.88;57.88
64066;BME280;50318;54.760;9.408;2022-08-24T07:11:01;101712.03;;;24.84;58.67
64066;BME280;50318;54.760;9.408;2022-08-24T07:13:28;101705.72;;;24.77;57.95
64066;BME280;50318;54.760;9.408;2022-08-24T07:15:57;101718.16;;;24.82;58.09
64066;BME280;50318;54.760;9.408;2022-08-24T07:18:23;101707.53;;;24.75;58.43
64066;BME280;50318;54.760;9.408;2022-08-24T07:20:49;101719.22;;;24.79;58.35
64066;BME280;50318;54.760;9.408;2022-08-24T07:23:18;101713.06;;;24.80;58.98
64066;BME280;50318;54.760;9.408;2022-08-24T07:25:45;101730.16;;;24.83;58.67
64066;BME280;50318;54.760;9.408;2022-08-24T07:28:12;101720.69;;;24.86;59.50
64066;BME280;50318;54.760;9.408;2022-08-24T07:31:05;101722.16;;;24.92;58.35
64066;BME280;50318;54.760;9.408;2022-08-24T07:33:37;101727.19;;;24.99;59.25
64066;BME280;50318;54.760;9.408;2022-08-24T07:36:03;101721.00;;;25.06;58.08
64066;BME280;50318;54.760;9.408;2022-08-24T07:38:29;101727.31;;;25.13;56.77
64066;BME280;50318;54.760;9.408;2022-08-24T07:41:13;101709.75;;;25.06;57.53
64066;BME280;50318;54.760;9.408;2022-08-24T07:43:40;101718.00;;;25.23;57.93
64066;BME280;50318;54.760;9.408;2022-08-24T07:46:06;101729.09;;;25.34;57.51
64066;BME280;50318;54.760;9.408;2022-08-24T07:48:33;101733.75;;;25.51;57.98
64066;BME280;50318;54.760;9.408;2022-08-24T07:51:10;101737.72;;;25.61;55.72
64066;BME280;50318;54.760;9.408;2022-08-24T07:53:36;101739.63;;;25.72;55.20
64066;BME280;50318;54.760;9.408;2022-08-24T07:56:03;101743.59;;;25.82;56.41
64066;BME280;50318;54.760;9.408;2022-08-24T07:58:30;101738.56;;;25.93;57.12
64066;BME280;50318;54.760;9.408;2022-08-24T08:00:57;101744.91;;;26.13;56.71
64066;BME280;50318;54.760;9.408;2022-08-24T08:03:24;101738.28;;;26.29;55.65
64066;BME280;50318;54.760;9.408;2022-08-24T08:05:59;101737.63;;;26.55;54.56
64066;BME280;50318;54.760;9.408;2022-08-24T08:08:26;101736.25;;;26.75;53.70
64066;BME280;50318;54.760;9.408;2022-08-24T08:10:53;101738.41;;;26.95;53.70
64066;BME280;50318;54.760;9.408;2022-08-24T08:13:19;101746.56;;;27.25;52.33
64066;BME280;50318;54.760;9.408;2022-08-24T08:15:46;101740.28;;;27.45;51.39
64066;BME280;50318;54.760;9.408;2022-08-24T08:18:12;101732.22;;;27.63;51.65
64066;BME280;50318;54.760;9.408;2022-08-24T08:20:39;101740.38;;;27.87;51.27
64066;BME280;50318;54.760;9.408;2022-08-24T08:23:06;101740.97;;;28.06;50.02
64066;BME280;50318;54.760;9.408;2022-08-24T08:25:55;101739.91;;;28.30;49.79
64066;BME280;50318;54.760;9.408;2022-08-24T08:28:32;101739.66;;;28.41;49.04
64066;BME280;50318;54.760;9.408;2022-08-24T08:31:00;101747.06;;;28.52;48.84
64066;BME280;50318;54.760;9.408;2022-08-24T08:33:26;101733.72;;;28.53;48.49
64066;BME280;50318;54.760;9.408;2022-08-24T08:36:05;101746.56;;;28.61;48.01
64066;BME280;50318;54.760;9.408;2022-08-24T08:38:33;101737.34;;;28.61;48.17
64066;BME280;50318;54.760;9.408;2022-08-24T08:47:05;101739.53;;;28.76;47.80
64066;BME280;50318;54.760;9.408;2022-08-24T09:16:13;101735.31;;;29.18;47.30
64066;BME280;50318;54.760;9.408;2022-08-24T09:21:08;101734.41;;;29.31;47.39
64066;BME280;50318;54.760;9.408;2022-08-24T09:24:15;101729.94;;;29.36;45.94
64066;BME280;50318;54.760;9.408;2022-08-24T09:35:10;101721.31;;;29.49;46.84
64066;BME280;50318;54.760;9.408;2022-08-24T09:38:17;101723.59;;;29.50;46.13
64066;BME280;50318;54.760;9.408;2022-08-24T09:40:58;101729.50;;;29.60;47.04
64066;BME280;50318;54.760;9.408;2022-08-24T09:50:20;101731.56;;;29.67;45.96
64066;BME280;50318;54.760;9.408;2022-08-24T09:55:42;101743.47;;;29.73;45.21
64066;BME280;50318;54.760;9.408;2022-08-24T10:01:13;101733.09;;;29.76;43.70
64066;BME280;50318;54.760;9.408;2022-08-24T10:06:46;101732.72;;;29.79;44.55
64066;BME280;50318;54.760;9.408;2022-08-24T10:09:38;101734.81;;;29.79;43.47
64066;BME280;50318;54.760;9.408;2022-08-24T10:12:32;101740.66;;;29.81;44.39
64066;BME280;50318;54.760;9.408;2022-08-24T10:15:07;101727.06;;;29.79;43.43
64066;BME280;50318;54.760;9.408;2022-08-24T10:20:15;101736.72;;;29.91;43.59
64066;BME280;50318;54.760;9.408;2022-08-24T10:26:00;101733.53;;;29.87;43.71
64066;BME280;50318;54.760;9.408;2022-08-24T10:31:18;101726.72;;;29.83;44.91
64066;BME280;50318;54.760;9.408;2022-08-24T10:53:47;101739.94;;;29.95;44.52
64066;BME280;50318;54.760;9.408;2022-08-24T10:56:16;101739.63;;;30.07;45.51
64066;BME280;50318;54.760;9.408;2022-08-24T11:01:36;101737.56;;;30.22;44.79
64066;BME280;50318;54.760;9.408;2022-08-24T11:07:03;101735.88;;;30.42;44.61
64066;BME280;50318;54.760;9.408;2022-08-24T11:09:56;101736.81;;;30.60;44.61
64066;BME280;50318;54.760;9.408;2022-08-24T11:12:41;101727.19;;;30.71;44.14
64066;BME280;50318;54.760;9.408;2022-08-24T11:17:53;101740.38;;;30.91;42.70
64066;BME280;50318;54.760;9.408;2022-08-24T11:23:07;101738.13;;;30.90;43.41
64066;BME280;50318;54.760;9.408;2022-08-24T11:25:37;101728.88;;;30.81;42.23
64066;BME280;50318;54.760;9.408;2022-08-24T11:28:36;101726.03;;;30.74;43.05
64066;BME280;50318;54.760;9.408;2022-08-24T11:31:19;101725.13;;;30.64;43.24
64066;BME280;50318;54.760;9.408;2022-08-24T11:33:48;101727.19;;;30.55;43.77
64066;BME280;50318;54.760;9.408;2022-08-24T11:36:20;101729.06;;;30.45;44.34
64066;BME280;50318;54.760;9.408;2022-08-24T11:38:48;101714.91;;;30.38;44.68
64066;BME280;50318;54.760;9.408;2022-08-24T11:41:36;101715.31;;;30.34;45.41
64066;BME280;50318;54.760;9.408;2022-08-24T11:44:33;101729.06;;;30.45;44.96
64066;BME280;50318;54.760;9.408;2022-08-24T11:57:55;101714.16;;;30.37;44.42
64066;BME280;50318;54.760;9.408;2022-08-24T12:00:37;101723.59;;;30.40;44.28
64066;BME280;50318;54.760;9.408;2022-08-24T12:03:06;101720.19;;;30.41;43.77
64066;BME280;50318;54.760;9.408;2022-08-24T12:05:43;101722.09;;;30.39;44.09
64066;BME280;50318;54.760;9.408;2022-08-24T12:14:40;101720.75;;;30.24;44.23
64066;BME280;50318;54.760;9.408;2022-08-24T12:17:18;101728.88;;;30.28;44.45
64066;BME280;50318;54.760;9.408;2022-08-24T12:19:53;101727.56;;;30.29;44.71
64066;BME280;50318;54.760;9.408;2022-08-24T12:22:20;101715.47;;;30.21;44.36
64066;BME280;50318;54.760;9.408;2022-08-24T12:24:58;101731.31;;;30.24;44.47
64066;BME280;50318;54.760;9.408;2022-08-24T12:30:11;101729.06;;;30.15;45.23
64066;BME280;50318;54.760;9.408;2022-08-24T12:32:48;101730.56;;;30.16;45.95
64066;BME280;50318;54.760;9.408;2022-08-24T12:35:39;101732.09;;;30.17;44.66
64066;BME280;50318;54.760;9.408;2022-08-24T12:41:04;101734.75;;;30.30;46.04
64066;BME280;50318;54.760;9.408;2022-08-24T12:43:40;101737.00;;;30.39;45.32
64066;BME280;50318;54.760;9.408;2022-08-24T12:46:09;101710.78;;;30.31;43.80
64066;BME280;50318;54.760;9.408;2022-08-24T12:48:47;101730.78;;;30.41;44.41
64066;BME280;50318;54.760;9.408;2022-08-24T12:59:27;101722.09;;;30.16;44.23
64066;BME280;50318;54.760;9.408;2022-08-24T13:04:56;101729.06;;;30.22;44.43
64066;BME280;50318;54.760;9.408;2022-08-24T13:17:44;101724.34;;;30.25;43.69
64066;BME280;50318;54.760;9.408;2022-08-24T13:35:59;101719.63;;;30.20;44.12
64066;BME280;50318;54.760;9.408;2022-08-24T13:38:32;101723.22;;;30.28;45.05
64066;BME280;50318;54.760;9.408;2022-08-24T13:47:30;101720.97;;;30.34;44.15
64066;BME280;50318;54.760;9.408;2022-08-24T14:01:02;101718.13;;;30.34;43.70
64066;BME280;50318;54.760;9.408;2022-08-24T14:03:52;101722.84;;;30.32;44.89
64066;BME280;50318;54.760;9.408;2022-08-24T14:06:31;101715.28;;;30.27;44.93
64066;BME280;50318;54.760;9.408;2022-08-24T14:14:36;101720.94;;;30.19;44.15
64066;BME280;50318;54.760;9.408;2022-08-24T14:23:37;101727.19;;;30.17;44.85
64066;BME280;50318;54.760;9.408;2022-08-24T14:44:49;101726.41;;;30.24;45.50
64066;BME280;50318;54.760;9.408;2022-08-24T14:47:34;101719.63;;;30.28;45.25
64066;BME280;50318;54.760;9.408;2022-08-24T15:06:46;101711.31;;;30.22;43.86
64066;BME280;50318;54.760;9.408;2022-08-24T15:09:27;101718.13;;;30.19;44.42
64066;BME280;50318;54.760;9.408;2022-08-24T15:12:12;101702.47;;;30.10;44.36
64066;BME280;50318;54.760;9.408;2022-08-24T15:17:47;101708.28;;;30.05;44.41
64066;BME280;50318;54.760;9.408;2022-08-24T15:20:59;101695.81;;;29.92;44.46
64066;BME280;50318;54.760;9.408;2022-08-24T15:23:24;101699.75;;;29.82;44.56
64066;BME280;50318;54.760;9.408;2022-08-24T15:29:09;101698.78;;;29.79;45.55
64066;BME280;50318;54.760;9.408;2022-08-24T15:31:41;101703.13;;;29.80;44.90
64066;BME280;50318;54.760;9.408;2022-08-24T15:34:09;101686.91;;;29.73;44.79
64066;BME280;50318;54.760;9.408;2022-08-24T15:36:35;101705.19;;;29.80;43.91
64066;BME280;50318;54.760;9.408;2022-08-24T15:39:04;101702.59;;;29.82;44.83
64066;BME280;50318;54.760;9.408;2022-08-24T15:41:39;101710.31;;;29.81;45.20
64066;BME280;50318;54.760;9.408;2022-08-24T15:44:12;101704.81;;;29.76;44.95
64066;BME280;50318;54.760;9.408;2022-08-24T15:46:46;101709.75;;;29.83;44.77
64066;BME280;50318;54.760;9.408;2022-08-24T15:49:21;101709.19;;;29.84;44.52
64066;BME280;50318;54.760;9.408;2022-08-24T15:51:56;101707.84;;;29.78;44.60
64066;BME280;50318;54.760;9.408;2022-08-24T15:57:03;101721.59;;;29.74;44.77
64066;BME280;50318;54.760;9.408;2022-08-24T16:05:26;101717.81;;;29.63;45.60
64066;BME280;50318;54.760;9.408;2022-08-24T16:13:10;101715.53;;;29.62;45.48
64066;BME280;50318;54.760;9.408;2022-08-24T16:26:53;101715.28;;;29.45;45.58
64066;BME280;50318;54.760;9.408;2022-08-24T16:32:51;101720.72;;;29.43;45.68
64066;BME280;50318;54.760;9.408;2022-08-24T16:35:19;101728.06;;;29.38;46.15
64066;BME280;50318;54.760;9.408;2022-08-24T16:37:45;101713.47;;;29.26;46.01
64066;BME280;50318;54.760;9.408;2022-08-24T16:40:11;101715.56;;;29.26;46.01
64066;BME280;50318;54.760;9.408;2022-08-24T16:42:38;101720.81;;;29.22;47.06
64066;BME280;50318;54.760;9.408;2022-08-24T16:45:05;101719.88;;;29.19;46.53
64066;BME280;50318;54.760;9.408;2022-08-24T16:47:32;101724.19;;;29.20;46.38
64066;BME280;50318;54.760;9.408;2022-08-24T16:49:58;101716.66;;;29.15;46.69
64066;BME280;50318;54.760;9.408;2022-08-24T16:52:23;101711.69;;;29.08;46.79
64066;BME280;50318;54.760;9.408;2022-08-24T16:54:49;101723.00;;;29.08;47.29
64066;BME280;50318;54.760;9.408;2022-08-24T16:57:18;101723.19;;;29.10;48.13
64066;BME280;50318;54.760;9.408;2022-08-24T16:59:46;101731.66;;;29.10;47.37
64066;BME280;50318;54.760;9.408;2022-08-24T17:02:13;101733.13;;;29.03;47.38
64066;BME280;50318;54.760;9.408;2022-08-24T17:04:39;101727.47;;;28.96;47.93
64066;BME280;50318;54.760;9.408;2022-08-24T17:07:07;101734.63;;;28.97;47.74
64066;BME280;50318;54.760;9.408;2022-08-24T17:09:38;101730.09;;;28.94;48.62
64066;BME280;50318;54.760;9.408;2022-08-24T17:12:05;101726.75;;;28.82;48.45
64066;BME280;50318;54.760;9.408;2022-08-24T17:14:31;101733.38;;;28.85;49.07
64066;BME280;50318;54.760;9.408;2022-08-24T17:16:57;101737.31;;;28.82;49.00
64066;BME280;50318;54.760;9.408;2022-08-24T17:19:25;101740.84;;;28.74;49.30
64066;BME280;50318;54.760;9.408;2022-08-24T17:22:16;101744.97;;;28.73;49.79
64066;BME280;50318;54.760;9.408;2022-08-24T17:24:43;101743.06;;;28.68;49.48
64066;BME280;50318;54.760;9.408;2022-08-24T17:27:09;101752.75;;;28.60;50.26
64066;BME280;50318;54.760;9.408;2022-08-24T17:29:35;101742.19;;;28.53;50.15